sensor_id;sensor_type;location;lat;lon;timestamp;temperature;humidity
12568;DHT22;6349;50.904;6.136;2023-06-22T00:00:15;22.30;99.90
12568;DHT22;6349;50.904;6.136;2023-06-22T00:02:17;22.30;99.90
12568;DHT22;6349;50.904;6.136;2023-06-22T00:04:18;22.30;99.90
12568;DHT22;6349;50.904;6.136;2023-06-22T00:06:20;22.20;99.90
12568;DHT22;6349;50.904;6.136;2023-06-22T00:08:20;22.30;99.90
12568;DHT22;6349;50.904;6.136;2023-06-22T00:10:21;22.20;99.90
12568;DHT22;6349;50.904;6.136;2023-06-22T00:12:21;22.20;99.90
12568;DHT22;6349;50.904;6.136;2023-06-22T00:14:22;22.20;99.90
12568;DHT22;6349;50.904;6.136;2023-06-22T00:16:24;22.30;99.90
12568;DHT22;6349;50.904;6.136;2023-06-22T00:18:24;22.20;99.90
12568;DHT22;6349;50.904;6.136;2023-06-22T00:20:28;22.20;99.90
12568;DHT22;6349;50.904;6.136;2023-06-22T00:22:30;22.10;99.90
12568;DHT22;6349;50.904;6.136;2023-06-22T00:24:31;22.10;99.90
12568;DHT22;6349;50.904;6.136;2023-06-22T00:26:33;22.20;99.90
12568;DHT22;6349;50.904;6.136;2023-06-22T00:28:34;22.10;99.90
12568;DHT22;6349;50.904;6.136;2023-06-22T00:30:35;22.00;99.90
12568;DHT22;6349;50.904;6.136;2023-06-22T00:32:35;22.00;99.90
12568;DHT22;6349;50.904;6.136;2023-06-22T00:34:38;22.10;99.90
12568;DHT22;6349;50.904;6.136;2023-06-22T00:36:39;22.10;99.90
12568;DHT22;6349;50.904;6.136;2023-06-22T00:38:41;22.10;99.90
12568;DHT22;6349;50.904;6.136;2023-06-22T00:40:42;22.20;99.90
12568;DHT22;6349;50.904;6.136;2023-06-22T00:42:43;22.20;99.90
12568;DHT22;6349;50.904;6.136;2023-06-22T00:44:44;22.20;99.90
12568;DHT22;6349;50.904;6.136;2023-06-22T00:46:46;22.30;99.90
12568;DHT22;6349;50.904;6.136;2023-06-22T00:48:47;22.20;99.90
12568;DHT22;6349;50.904;6.136;2023-06-22T00:50:47;22.20;99.90
12568;DHT22;6349;50.904;6.136;2023-06-22T00:52:53;22.20;99.90
12568;DHT22;6349;50.904;6.136;2023-06-22T00:54:54;22.20;99.90
12568;DHT22;6349;50.904;6.136;2023-06-22T00:56:57;22.20;99.90
12568;DHT22;6349;50.904;6.136;2023-06-22T00:58:58;22.10;99.90
12568;DHT22;6349;50.904;6.136;2023-06-22T01:01:00;22.00;99.90
12568;DHT22;6349;50.904;6.136;2023-06-22T01:03:03;21.90;99.90
12568;DHT22;6349;50.904;6.136;2023-06-22T01:05:04;21.90;99.90
12568;DHT22;6349;50.904;6.136;2023-06-22T01:09:34;21.80;99.90
12568;DHT22;6349;50.904;6.136;2023-06-22T01:11:39;21.80;99.90
12568;DHT22;6349;50.904;6.136;2023-06-22T01:13:50;21.80;99.90
12568;DHT22;6349;50.904;6.136;2023-06-22T01:18:06;21.80;99.90
12568;DHT22;6349;50.904;6.136;2023-06-22T01:20:08;21.80;99.90
12568;DHT22;6349;50.904;6.136;2023-06-22T01:22:14;21.90;99.90
12568;DHT22;6349;50.904;6.136;2023-06-22T01:29:22;21.90;99.90
12568;DHT22;6349;50.904;6.136;2023-06-22T01:31:27;21.80;99.90
12568;DHT22;6349;50.904;6.136;2023-06-22T01:33:34;21.80;99.90
12568;DHT22;6349;50.904;6.136;2023-06-22T01:35:41;21.80;99.90
12568;DHT22;6349;50.904;6.136;2023-06-22T01:37:42;21.90;99.90
12568;DHT22;6349;50.904;6.136;2023-06-22T01:39:44;21.80;99.90
12568;DHT22;6349;50.904;6.136;2023-06-22T01:41:47;21.70;99.90
12568;DHT22;6349;50.904;6.136;2023-06-22T01:43:48;21.70;99.90
12568;DHT22;6349;50.904;6.136;2023-06-22T01:45:51;21.60;99.90
12568;DHT22;6349;50.904;6.136;2023-06-22T01:47:53;21.70;99.90
12568;DHT22;6349;50.904;6.136;2023-06-22T01:49:55;21.70;99.90
12568;DHT22;6349;50.904;6.136;2023-06-22T01:51:57;21.80;99.90
12568;DHT22;6349;50.904;6.136;2023-06-22T01:53:59;21.90;99.90
12568;DHT22;6349;50.904;6.136;2023-06-22T01:56:02;21.80;99.90
12568;DHT22;6349;50.904;6.136;2023-06-22T01:58:03;21.80;99.90
12568;DHT22;6349;50.904;6.136;2023-06-22T02:00:11;21.80;99.90
12568;DHT22;6349;50.904;6.136;2023-06-22T02:02:16;21.80;99.90
12568;DHT22;6349;50.904;6.136;2023-06-22T02:04:23;21.80;99.90
12568;DHT22;6349;50.904;6.136;2023-06-22T02:06:31;21.80;99.90
12568;DHT22;6349;50.904;6.136;2023-06-22T02:08:41;21.80;99.90
12568;DHT22;6349;50.904;6.136;2023-06-22T02:10:42;21.80;99.90
12568;DHT22;6349;50.904;6.136;2023-06-22T02:12:44;21.80;99.90
12568;DHT22;6349;50.904;6.136;2023-06-22T02:14:46;21.80;99.90
12568;DHT22;6349;50.904;6.136;2023-06-22T02:16:48;21.90;99.90
12568;DHT22;6349;50.904;6.136;2023-06-22T02:18:50;21.80;99.90
12568;DHT22;6349;50.904;6.136;2023-06-22T02:20:51;21.80;99.90
12568;DHT22;6349;50.904;6.136;2023-06-22T02:22:53;21.80;99.90
12568;DHT22;6349;50.904;6.136;2023-06-22T02:24:54;21.80;99.90
12568;DHT22;6349;50.904;6.136;2023-06-22T02:26:58;21.70;99.90
12568;DHT22;6349;50.904;6.136;2023-06-22T02:28:59;21.70;99.90
12568;DHT22;6349;50.904;6.136;2023-06-22T02:30:59;21.70;99.90
12568;DHT22;6349;50.904;6.136;2023-06-22T02:33:00;21.70;99.90
12568;DHT22;6349;50.904;6.136;2023-06-22T02:35:00;21.60;99.90
12568;DHT22;6349;50.904;6.136;2023-06-22T02:37:05;21.70;99.90
12568;DHT22;6349;50.904;6.136;2023-06-22T02:39:06;21.60;99.90
12568;DHT22;6349;50.904;6.136;2023-06-22T02:41:07;21.70;99.90
12568;DHT22;6349;50.904;6.136;2023-06-22T02:43:09;21.70;99.90
12568;DHT22;6349;50.904;6.136;2023-06-22T02:45:09;21.60;99.90
12568;DHT22;6349;50.904;6.136;2023-06-22T02:47:11;21.60;99.90
12568;DHT22;6349;50.904;6.136;2023-06-22T02:49:12;21.60;99.90
12568;DHT22;6349;50.904;6.136;2023-06-22T02:51:13;21.60;99.90
12568;DHT22;6349;50.904;6.136;2023-06-22T02:53:16;21.60;99.90
12568;DHT22;6349;50.904;6.136;2023-06-22T02:55:17;21.60;99.90
12568;DHT22;6349;50.904;6.136;2023-06-22T02:57:18;21.60;99.90
12568;DHT22;6349;50.904;6.136;2023-06-22T02:59:19;21.50;99.90
12568;DHT22;6349;50.904;6.136;2023-06-22T03:01:25;21.50;99.90
12568;DHT22;6349;50.904;6.136;2023-06-22T03:03:29;21.50;99.90
12568;DHT22;6349;50.904;6.136;2023-06-22T03:05:30;21.50;99.90
12568;DHT22;6349;50.904;6.136;2023-06-22T03:07:33;21.50;99.90
12568;DHT22;6349;50.904;6.136;2023-06-22T03:09:33;21.50;99.90
12568;DHT22;6349;50.904;6.136;2023-06-22T03:11:34;21.40;99.90
12568;DHT22;6349;50.904;6.136;2023-06-22T03:13:35;21.40;99.90
12568;DHT22;6349;50.904;6.136;2023-06-22T03:15:36;21.40;99.90
12568;DHT22;6349;50.904;6.136;2023-06-22T03:17:38;21.40;99.90
12568;DHT22;6349;50.904;6.136;2023-06-22T03:19:41;21.40;99.90
12568;DHT22;6349;50.904;6.136;2023-06-22T03:21:43;21.40;99.90
12568;DHT22;6349;50.904;6.136;2023-06-22T03:23:44;21.40;99.90
12568;DHT22;6349;50.904;6.136;2023-06-22T03:25:46;21.40;99.90
12568;DHT22;6349;50.904;6.136;2023-06-22T03:27:47;21.40;99.90
12568;DHT22;6349;50.904;6.136;2023-06-22T03:29:48;21.40;99.90
12568;DHT22;6349;50.904;6.136;2023-06-22T03:31:49;21.40;99.90
12568;DHT22;6349;50.904;6.136;2023-06-22T03:33:50;21.50;99.90
12568;DHT22;6349;50.904;6.136;2023-06-22T03:35:52;21.50;99.90
12568;DHT22;6349;50.904;6.136;2023-06-22T03:37:54;21.50;99.90
12568;DHT22;6349;50.904;6.136;2023-06-22T03:39:54;21.50;99.90
12568;DHT22;6349;50.904;6.136;2023-06-22T03:41:56;21.50;99.90
12568;DHT22;6349;50.904;6.136;2023-06-22T03:43:57;21.50;99.90
12568;DHT22;6349;50.904;6.136;2023-06-22T03:45:58;21.40;99.90
12568;DHT22;6349;50.904;6.136;2023-06-22T03:48:00;21.40;99.90
12568;DHT22;6349;50.904;6.136;2023-06-22T03:50:02;21.40;99.90
12568;DHT22;6349;50.904;6.136;2023-06-22T03:52:04;21.40;99.90
12568;DHT22;6349;50.904;6.136;2023-06-22T03:54:06;21.30;99.90
12568;DHT22;6349;50.904;6.136;2023-06-22T03:56:08;21.40;99.90
12568;DHT22;6349;50.904;6.136;2023-06-22T03:58:10;21.40;99.90
12568;DHT22;6349;50.904;6.136;2023-06-22T04:00:12;21.40;99.90
12568;DHT22;6349;50.904;6.136;2023-06-22T04:02:14;21.40;99.90
12568;DHT22;6349;50.904;6.136;2023-06-22T04:04:14;21.40;99.90
12568;DHT22;6349;50.904;6.136;2023-06-22T04:06:17;21.30;99.90
12568;DHT22;6349;50.904;6.136;2023-06-22T04:08:18;21.30;99.90
12568;DHT22;6349;50.904;6.136;2023-06-22T04:10:18;21.30;99.90
12568;DHT22;6349;50.904;6.136;2023-06-22T04:12:19;21.30;99.90
12568;DHT22;6349;50.904;6.136;2023-06-22T04:14:19;21.30;99.90
12568;DHT22;6349;50.904;6.136;2023-06-22T04:16:23;21.40;99.90
12568;DHT22;6349;50.904;6.136;2023-06-22T04:18:24;21.40;99.90
12568;DHT22;6349;50.904;6.136;2023-06-22T04:20:25;21.40;99.90
12568;DHT22;6349;50.904;6.136;2023-06-22T04:22:27;21.30;99.90
12568;DHT22;6349;50.904;6.136;2023-06-22T04:24:28;21.30;99.90
12568;DHT22;6349;50.904;6.136;2023-06-22T04:26:29;21.30;99.90
12568;DHT22;6349;50.904;6.136;2023-06-22T04:28:30;21.30;99.90
12568;DHT22;6349;50.904;6.136;2023-06-22T04:30:35;21.40;99.90
12568;DHT22;6349;50.904;6.136;2023-06-22T04:32:35;21.40;99.90
12568;DHT22;6349;50.904;6.136;2023-06-22T04:34:36;21.40;99.90
12568;DHT22;6349;50.904;6.136;2023-06-22T04:36:41;21.50;99.90
12568;DHT22;6349;50.904;6.136;2023-06-22T04:38:42;21.50;99.90
12568;DHT22;6349;50.904;6.136;2023-06-22T04:40:45;21.50;99.90
12568;DHT22;6349;50.904;6.136;2023-06-22T04:42:46;21.50;99.90
12568;DHT22;6349;50.904;6.136;2023-06-22T04:44:52;21.40;99.90
12568;DHT22;6349;50.904;6.136;2023-06-22T04:47:01;21.40;99.90
12568;DHT22;6349;50.904;6.136;2023-06-22T04:49:10;21.20;99.90
12568;DHT22;6349;50.904;6.136;2023-06-22T04:51:12;21.20;99.90
12568;DHT22;6349;50.904;6.136;2023-06-22T04:53:13;21.10;99.90
12568;DHT22;6349;50.904;6.136;2023-06-22T04:55:15;21.00;99.90
12568;DHT22;6349;50.904;6.136;2023-06-22T04:57:18;20.90;99.90
12568;DHT22;6349;50.904;6.136;2023-06-22T04:59:19;21.00;99.90
12568;DHT22;6349;50.904;6.136;2023-06-22T05:01:19;21.00;99.90
12568;DHT22;6349;50.904;6.136;2023-06-22T05:03:26;21.10;99.90
12568;DHT22;6349;50.904;6.136;2023-06-22T05:05:29;21.10;99.90
12568;DHT22;6349;50.904;6.136;2023-06-22T05:07:30;21.10;99.90
12568;DHT22;6349;50.904;6.136;2023-06-22T05:09:31;21.20;99.90
12568;DHT22;6349;50.904;6.136;2023-06-22T05:11:31;21.20;99.90
12568;DHT22;6349;50.904;6.136;2023-06-22T05:13:32;21.20;99.90
12568;DHT22;6349;50.904;6.136;2023-06-22T05:15:34;21.30;99.90
12568;DHT22;6349;50.904;6.136;2023-06-22T05:17:42;21.40;99.90
12568;DHT22;6349;50.904;6.136;2023-06-22T05:19:47;21.30;99.90
12568;DHT22;6349;50.904;6.136;2023-06-22T05:21:49;21.30;99.90
12568;DHT22;6349;50.904;6.136;2023-06-22T05:23:52;21.30;99.90
12568;DHT22;6349;50.904;6.136;2023-06-22T05:25:54;21.30;99.90
12568;DHT22;6349;50.904;6.136;2023-06-22T05:27:59;21.30;99.90
12568;DHT22;6349;50.904;6.136;2023-06-22T05:29:59;21.30;99.90
12568;DHT22;6349;50.904;6.136;2023-06-22T05:32:00;21.30;99.90
12568;DHT22;6349;50.904;6.136;2023-06-22T05:34:00;21.30;99.90
12568;DHT22;6349;50.904;6.136;2023-06-22T05:36:02;21.30;99.90
12568;DHT22;6349;50.904;6.136;2023-06-22T05:38:02;21.30;99.90
12568;DHT22;6349;50.904;6.136;2023-06-22T05:40:03;21.30;99.90
12568;DHT22;6349;50.904;6.136;2023-06-22T05:42:07;21.30;99.90
12568;DHT22;6349;50.904;6.136;2023-06-22T05:44:08;21.40;99.90
12568;DHT22;6349;50.904;6.136;2023-06-22T05:46:10;21.40;99.90
12568;DHT22;6349;50.904;6.136;2023-06-22T05:48:11;21.40;99.90
12568;DHT22;6349;50.904;6.136;2023-06-22T05:50:13;21.50;99.90
12568;DHT22;6349;50.904;6.136;2023-06-22T05:52:15;21.50;99.90
12568;DHT22;6349;50.904;6.136;2023-06-22T05:54:17;21.50;99.90
12568;DHT22;6349;50.904;6.136;2023-06-22T05:56:19;21.50;99.90
12568;DHT22;6349;50.904;6.136;2023-06-22T05:58:21;21.60;99.90
12568;DHT22;6349;50.904;6.136;2023-06-22T06:00:23;21.60;99.90
12568;DHT22;6349;50.904;6.136;2023-06-22T06:02:25;21.60;99.90
12568;DHT22;6349;50.904;6.136;2023-06-22T06:04:27;21.60;99.90
12568;DHT22;6349;50.904;6.136;2023-06-22T06:06:29;21.60;99.90
12568;DHT22;6349;50.904;6.136;2023-06-22T06:08:30;21.60;99.90
12568;DHT22;6349;50.904;6.136;2023-06-22T06:10:31;21.70;99.90
12568;DHT22;6349;50.904;6.136;2023-06-22T06:12:32;21.70;99.90
12568;DHT22;6349;50.904;6.136;2023-06-22T06:14:33;21.80;99.90
12568;DHT22;6349;50.904;6.136;2023-06-22T06:16:35;21.80;99.90
12568;DHT22;6349;50.904;6.136;2023-06-22T06:18:35;21.80;99.90
12568;DHT22;6349;50.904;6.136;2023-06-22T06:20:39;21.80;99.90
12568;DHT22;6349;50.904;6.136;2023-06-22T06:22:41;21.80;99.90
12568;DHT22;6349;50.904;6.136;2023-06-22T06:24:43;21.90;99.90
12568;DHT22;6349;50.904;6.136;2023-06-22T06:26:44;21.90;99.90
12568;DHT22;6349;50.904;6.136;2023-06-22T06:28:46;22.00;99.90
12568;DHT22;6349;50.904;6.136;2023-06-22T06:30:46;22.00;99.90
12568;DHT22;6349;50.904;6.136;2023-06-22T06:32:47;22.10;99.90
12568;DHT22;6349;50.904;6.136;2023-06-22T06:34:48;22.10;99.90
12568;DHT22;6349;50.904;6.136;2023-06-22T06:36:49;22.10;99.90
12568;DHT22;6349;50.904;6.136;2023-06-22T06:38:50;22.20;99.90
12568;DHT22;6349;50.904;6.136;2023-06-22T06:40:51;22.20;99.90
12568;DHT22;6349;50.904;6.136;2023-06-22T06:42:53;22.30;99.90
12568;DHT22;6349;50.904;6.136;2023-06-22T06:44:54;22.20;99.90
12568;DHT22;6349;50.904;6.136;2023-06-22T06:46:56;22.30;99.90
12568;DHT22;6349;50.904;6.136;2023-06-22T06:48:58;22.30;99.90
12568;DHT22;6349;50.904;6.136;2023-06-22T06:51:00;22.30;99.90
12568;DHT22;6349;50.904;6.136;2023-06-22T06:53:00;22.40;99.90
12568;DHT22;6349;50.904;6.136;2023-06-22T06:55:02;22.40;99.90
12568;DHT22;6349;50.904;6.136;2023-06-22T06:57:13;22.40;99.90
12568;DHT22;6349;50.904;6.136;2023-06-22T06:59:18;22.40;99.90
12568;DHT22;6349;50.904;6.136;2023-06-22T07:01:20;22.40;99.90
12568;DHT22;6349;50.904;6.136;2023-06-22T07:03:22;22.40;99.90
12568;DHT22;6349;50.904;6.136;2023-06-22T07:05:24;22.50;99.90
12568;DHT22;6349;50.904;6.136;2023-06-22T07:07:25;22.60;99.90
12568;DHT22;6349;50.904;6.136;2023-06-22T07:09:27;22.60;99.90
12568;DHT22;6349;50.904;6.136;2023-06-22T07:11:28;22.70;99.90
12568;DHT22;6349;50.904;6.136;2023-06-22T07:13:30;22.60;99.90
12568;DHT22;6349;50.904;6.136;2023-06-22T07:15:31;22.60;99.90
12568;DHT22;6349;50.904;6.136;2023-06-22T07:17:34;22.70;99.90
12568;DHT22;6349;50.904;6.136;2023-06-22T07:19:36;22.70;99.90
12568;DHT22;6349;50.904;6.136;2023-06-22T07:21:38;22.80;99.90
12568;DHT22;6349;50.904;6.136;2023-06-22T07:23:41;22.80;99.90
12568;DHT22;6349;50.904;6.136;2023-06-22T07:25:43;22.90;99.90
12568;DHT22;6349;50.904;6.136;2023-06-22T07:27:46;22.90;99.90
12568;DHT22;6349;50.904;6.136;2023-06-22T07:29:47;22.90;99.90
12568;DHT22;6349;50.904;6.136;2023-06-22T07:31:48;23.00;99.90
12568;DHT22;6349;50.904;6.136;2023-06-22T07:33:50;23.10;99.90
12568;DHT22;6349;50.904;6.136;2023-06-22T07:35:52;23.10;99.90
12568;DHT22;6349;50.904;6.136;2023-06-22T07:37:53;23.20;99.90
12568;DHT22;6349;50.904;6.136;2023-06-22T07:39:54;23.20;99.90
12568;DHT22;6349;50.904;6.136;2023-06-22T07:41:59;23.20;99.90
12568;DHT22;6349;50.904;6.136;2023-06-22T07:44:00;23.20;99.90
12568;DHT22;6349;50.904;6.136;2023-06-22T07:46:05;23.20;99.90
12568;DHT22;6349;50.904;6.136;2023-06-22T07:48:07;23.20;99.90
12568;DHT22;6349;50.904;6.136;2023-06-22T07:50:09;23.30;99.90
12568;DHT22;6349;50.904;6.136;2023-06-22T07:52:10;23.30;99.90
12568;DHT22;6349;50.904;6.136;2023-06-22T07:54:11;23.30;99.90
12568;DHT22;6349;50.904;6.136;2023-06-22T07:56:14;23.40;99.90
12568;DHT22;6349;50.904;6.136;2023-06-22T07:58:19;23.60;99.90
12568;DHT22;6349;50.904;6.136;2023-06-22T08:00:21;23.60;99.90
12568;DHT22;6349;50.904;6.136;2023-06-22T08:02:23;23.60;99.90
12568;DHT22;6349;50.904;6.136;2023-06-22T08:04:23;23.60;99.90
12568;DHT22;6349;50.904;6.136;2023-06-22T08:06:25;23.60;99.90
12568;DHT22;6349;50.904;6.136;2023-06-22T08:08:26;23.70;99.90
12568;DHT22;6349;50.904;6.136;2023-06-22T08:10:26;23.70;99.90
12568;DHT22;6349;50.904;6.136;2023-06-22T08:12:27;23.80;99.90
12568;DHT22;6349;50.904;6.136;2023-06-22T08:14:29;23.90;99.90
12568;DHT22;6349;50.904;6.136;2023-06-22T08:16:31;23.90;99.90
12568;DHT22;6349;50.904;6.136;2023-06-22T08:18:32;23.90;99.90
12568;DHT22;6349;50.904;6.136;2023-06-22T08:20:32;24.10;99.90
12568;DHT22;6349;50.904;6.136;2023-06-22T08:22:35;24.10;99.90
12568;DHT22;6349;50.904;6.136;2023-06-22T08:24:37;24.20;99.90
12568;DHT22;6349;50.904;6.136;2023-06-22T08:26:39;24.20;99.90
12568;DHT22;6349;50.904;6.136;2023-06-22T08:28:39;24.20;99.90
12568;DHT22;6349;50.904;6.136;2023-06-22T08:30:41;24.30;99.90
12568;DHT22;6349;50.904;6.136;2023-06-22T08:32:42;24.30;99.90
12568;DHT22;6349;50.904;6.136;2023-06-22T08:34:43;24.50;99.90
12568;DHT22;6349;50.904;6.136;2023-06-22T08:36:45;24.40;99.90
12568;DHT22;6349;50.904;6.136;2023-06-22T08:38:52;24.50;99.90
12568;DHT22;6349;50.904;6.136;2023-06-22T08:40:54;24.50;99.90
12568;DHT22;6349;50.904;6.136;2023-06-22T08:42:56;24.50;99.90
12568;DHT22;6349;50.904;6.136;2023-06-22T08:44:56;24.60;99.90
12568;DHT22;6349;50.904;6.136;2023-06-22T08:46:58;24.50;99.90
12568;DHT22;6349;50.904;6.136;2023-06-22T08:49:00;24.50;99.90
12568;DHT22;6349;50.904;6.136;2023-06-22T08:51:02;24.60;99.90
12568;DHT22;6349;50.904;6.136;2023-06-22T08:53:03;24.70;99.90
12568;DHT22;6349;50.904;6.136;2023-06-22T08:55:04;24.80;99.90
12568;DHT22;6349;50.904;6.136;2023-06-22T08:57:06;24.90;99.90
12568;DHT22;6349;50.904;6.136;2023-06-22T08:59:07;24.90;99.90
12568;DHT22;6349;50.904;6.136;2023-06-22T09:01:08;24.90;99.90
12568;DHT22;6349;50.904;6.136;2023-06-22T09:03:10;25.00;99.90
12568;DHT22;6349;50.904;6.136;2023-06-22T09:05:10;25.00;99.90
12568;DHT22;6349;50.904;6.136;2023-06-22T09:07:12;25.10;99.90
12568;DHT22;6349;50.904;6.136;2023-06-22T09:09:13;25.10;99.90
12568;DHT22;6349;50.904;6.136;2023-06-22T09:11:14;25.10;99.90
12568;DHT22;6349;50.904;6.136;2023-06-22T09:13:16;25.20;99.90
12568;DHT22;6349;50.904;6.136;2023-06-22T09:15:18;25.20;99.90
12568;DHT22;6349;50.904;6.136;2023-06-22T09:17:19;25.30;99.90
12568;DHT22;6349;50.904;6.136;2023-06-22T09:19:19;25.30;99.90
12568;DHT22;6349;50.904;6.136;2023-06-22T09:21:20;25.30;99.90
12568;DHT22;6349;50.904;6.136;2023-06-22T09:23:22;25.30;99.90
12568;DHT22;6349;50.904;6.136;2023-06-22T09:25:24;25.30;99.90
12568;DHT22;6349;50.904;6.136;2023-06-22T09:27:26;25.30;99.90
12568;DHT22;6349;50.904;6.136;2023-06-22T09:29:27;25.30;99.90
12568;DHT22;6349;50.904;6.136;2023-06-22T09:31:27;25.20;99.90
12568;DHT22;6349;50.904;6.136;2023-06-22T09:33:28;25.10;99.90
12568;DHT22;6349;50.904;6.136;2023-06-22T09:35:30;25.10;99.90
12568;DHT22;6349;50.904;6.136;2023-06-22T09:37:32;25.10;99.90
12568;DHT22;6349;50.904;6.136;2023-06-22T09:39:32;25.00;99.90
12568;DHT22;6349;50.904;6.136;2023-06-22T09:41:33;24.90;99.90
12568;DHT22;6349;50.904;6.136;2023-06-22T09:43:35;24.90;99.90
12568;DHT22;6349;50.904;6.136;2023-06-22T09:45:37;24.80;99.90
12568;DHT22;6349;50.904;6.136;2023-06-22T09:47:38;24.80;99.90
12568;DHT22;6349;50.904;6.136;2023-06-22T09:49:38;24.70;99.90
12568;DHT22;6349;50.904;6.136;2023-06-22T09:51:40;24.70;99.90
12568;DHT22;6349;50.904;6.136;2023-06-22T09:53:42;24.60;99.90
12568;DHT22;6349;50.904;6.136;2023-06-22T09:55:44;24.60;99.90
12568;DHT22;6349;50.904;6.136;2023-06-22T09:57:45;24.50;99.90
12568;DHT22;6349;50.904;6.136;2023-06-22T09:59:45;24.50;99.90
12568;DHT22;6349;50.904;6.136;2023-06-22T10:01:46;24.50;99.90
12568;DHT22;6349;50.904;6.136;2023-06-22T10:03:48;24.50;99.90
12568;DHT22;6349;50.904;6.136;2023-06-22T10:05:49;24.50;99.90
12568;DHT22;6349;50.904;6.136;2023-06-22T10:07:51;24.50;99.90
12568;DHT22;6349;50.904;6.136;2023-06-22T10:09:53;24.40;99.90
12568;DHT22;6349;50.904;6.136;2023-06-22T10:11:54;24.40;99.90
12568;DHT22;6349;50.904;6.136;2023-06-22T10:13:54;24.40;99.90
12568;DHT22;6349;50.904;6.136;2023-06-22T10:15:56;24.40;99.90
12568;DHT22;6349;50.904;6.136;2023-06-22T10:17:57;24.40;99.90
12568;DHT22;6349;50.904;6.136;2023-06-22T10:20:00;24.40;99.90
12568;DHT22;6349;50.904;6.136;2023-06-22T10:22:03;24.40;99.90
12568;DHT22;6349;50.904;6.136;2023-06-22T10:24:04;24.40;99.90
12568;DHT22;6349;50.904;6.136;2023-06-22T10:26:08;24.30;99.90
12568;DHT22;6349;50.904;6.136;2023-06-22T10:28:08;24.30;99.90
12568;DHT22;6349;50.904;6.136;2023-06-22T10:30:10;24.30;99.90
12568;DHT22;6349;50.904;6.136;2023-06-22T10:32:13;24.10;99.90
12568;DHT22;6349;50.904;6.136;2023-06-22T10:34:13;24.10;99.90
12568;DHT22;6349;50.904;6.136;2023-06-22T10:36:15;24.10;99.90
12568;DHT22;6349;50.904;6.136;2023-06-22T10:38:15;24.00;99.90
12568;DHT22;6349;50.904;6.136;2023-06-22T10:40:17;24.00;99.90
12568;DHT22;6349;50.904;6.136;2023-06-22T10:42:20;24.00;99.90
12568;DHT22;6349;50.904;6.136;2023-06-22T10:44:21;23.90;99.90
12568;DHT22;6349;50.904;6.136;2023-06-22T10:46:24;23.70;99.90
12568;DHT22;6349;50.904;6.136;2023-06-22T10:48:26;23.60;99.90
12568;DHT22;6349;50.904;6.136;2023-06-22T10:50:26;23.50;99.90
12568;DHT22;6349;50.904;6.136;2023-06-22T10:52:28;23.40;99.90
12568;DHT22;6349;50.904;6.136;2023-06-22T10:54:28;23.40;99.90
12568;DHT22;6349;50.904;6.136;2023-06-22T10:56:30;23.40;99.90
12568;DHT22;6349;50.904;6.136;2023-06-22T10:58:31;23.50;99.90
12568;DHT22;6349;50.904;6.136;2023-06-22T11:00:32;23.50;99.90
12568;DHT22;6349;50.904;6.136;2023-06-22T11:02:34;23.60;99.90
12568;DHT22;6349;50.904;6.136;2023-06-22T11:04:36;23.60;99.90
12568;DHT22;6349;50.904;6.136;2023-06-22T11:06:38;23.70;99.90
12568;DHT22;6349;50.904;6.136;2023-06-22T11:08:44;23.80;99.90
12568;DHT22;6349;50.904;6.136;2023-06-22T11:10:46;23.90;99.90
12568;DHT22;6349;50.904;6.136;2023-06-22T11:12:48;23.90;99.90
12568;DHT22;6349;50.904;6.136;2023-06-22T11:14:50;23.90;99.90
12568;DHT22;6349;50.904;6.136;2023-06-22T11:16:53;24.00;99.90
12568;DHT22;6349;50.904;6.136;2023-06-22T11:18:55;24.10;99.90
12568;DHT22;6349;50.904;6.136;2023-06-22T11:20:56;24.10;99.90
12568;DHT22;6349;50.904;6.136;2023-06-22T11:22:58;24.10;99.90
12568;DHT22;6349;50.904;6.136;2023-06-22T11:25:00;24.10;99.90
12568;DHT22;6349;50.904;6.136;2023-06-22T11:27:02;24.20;99.90
12568;DHT22;6349;50.904;6.136;2023-06-22T11:29:04;24.40;99.90
12568;DHT22;6349;50.904;6.136;2023-06-22T11:31:08;24.40;99.90
12568;DHT22;6349;50.904;6.136;2023-06-22T11:33:09;24.60;99.90
12568;DHT22;6349;50.904;6.136;2023-06-22T11:35:10;24.70;99.90
12568;DHT22;6349;50.904;6.136;2023-06-22T11:37:11;24.90;99.90
12568;DHT22;6349;50.904;6.136;2023-06-22T11:39:13;25.00;99.90
12568;DHT22;6349;50.904;6.136;2023-06-22T11:41:16;25.00;99.90
12568;DHT22;6349;50.904;6.136;2023-06-22T11:43:18;25.10;99.90
12568;DHT22;6349;50.904;6.136;2023-06-22T11:45:19;25.20;99.90
12568;DHT22;6349;50.904;6.136;2023-06-22T11:47:20;25.20;99.90
12568;DHT22;6349;50.904;6.136;2023-06-22T11:49:22;25.30;99.90
12568;DHT22;6349;50.904;6.136;2023-06-22T11:51:24;25.40;99.90
12568;DHT22;6349;50.904;6.136;2023-06-22T11:53:26;25.40;99.90
12568;DHT22;6349;50.904;6.136;2023-06-22T11:55:29;25.40;99.90
12568;DHT22;6349;50.904;6.136;2023-06-22T11:57:33;25.50;99.90
12568;DHT22;6349;50.904;6.136;2023-06-22T11:59:36;25.60;99.90
12568;DHT22;6349;50.904;6.136;2023-06-22T12:01:37;25.50;99.90
12568;DHT22;6349;50.904;6.136;2023-06-22T12:03:39;25.30;99.90
12568;DHT22;6349;50.904;6.136;2023-06-22T12:05:41;25.30;99.90
12568;DHT22;6349;50.904;6.136;2023-06-22T12:07:41;25.20;99.90
12568;DHT22;6349;50.904;6.136;2023-06-22T12:09:42;25.10;99.90
12568;DHT22;6349;50.904;6.136;2023-06-22T12:11:42;25.10;99.90
12568;DHT22;6349;50.904;6.136;2023-06-22T12:13:43;25.20;99.90
12568;DHT22;6349;50.904;6.136;2023-06-22T12:15:45;25.20;99.90
12568;DHT22;6349;50.904;6.136;2023-06-22T12:17:47;25.30;99.90
12568;DHT22;6349;50.904;6.136;2023-06-22T12:19:50;25.20;99.90
12568;DHT22;6349;50.904;6.136;2023-06-22T12:21:52;25.20;99.90
12568;DHT22;6349;50.904;6.136;2023-06-22T12:23:53;25.10;99.90
12568;DHT22;6349;50.904;6.136;2023-06-22T12:25:55;25.10;99.90
12568;DHT22;6349;50.904;6.136;2023-06-22T12:27:56;25.10;99.90
12568;DHT22;6349;50.904;6.136;2023-06-22T12:29:56;25.10;99.90
12568;DHT22;6349;50.904;6.136;2023-06-22T12:31:57;25.00;99.90
12568;DHT22;6349;50.904;6.136;2023-06-22T12:33:59;24.90;99.90
12568;DHT22;6349;50.904;6.136;2023-06-22T12:36:00;24.90;99.90
12568;DHT22;6349;50.904;6.136;2023-06-22T12:38:02;24.90;99.90
12568;DHT22;6349;50.904;6.136;2023-06-22T12:40:05;24.90;99.90
12568;DHT22;6349;50.904;6.136;2023-06-22T12:42:07;25.00;99.90
12568;DHT22;6349;50.904;6.136;2023-06-22T12:44:10;25.10;99.90
12568;DHT22;6349;50.904;6.136;2023-06-22T12:46:12;25.10;99.90
12568;DHT22;6349;50.904;6.136;2023-06-22T12:48:14;25.20;99.90
12568;DHT22;6349;50.904;6.136;2023-06-22T12:50:16;25.20;99.90
12568;DHT22;6349;50.904;6.136;2023-06-22T12:52:18;25.20;99.90
12568;DHT22;6349;50.904;6.136;2023-06-22T12:54:20;25.10;99.90
12568;DHT22;6349;50.904;6.136;2023-06-22T12:56:22;25.10;99.90
12568;DHT22;6349;50.904;6.136;2023-06-22T12:58:23;25.00;99.90
12568;DHT22;6349;50.904;6.136;2023-06-22T13:00:23;25.00;99.90
12568;DHT22;6349;50.904;6.136;2023-06-22T13:02:25;25.00;99.90
12568;DHT22;6349;50.904;6.136;2023-06-22T13:04:25;24.90;99.90
12568;DHT22;6349;50.904;6.136;2023-06-22T13:06:27;24.80;99.90
12568;DHT22;6349;50.904;6.136;2023-06-22T13:08:28;24.80;99.90
12568;DHT22;6349;50.904;6.136;2023-06-22T13:10:28;24.80;99.90